createdAt,value
2019-01-18T00:01:51.977Z,6.63
2019-01-18T00:04:20.804Z,6.13
2019-01-18T00:06:49.605Z,5.40
2019-01-18T00:09:18.493Z,5.30
2019-01-18T00:11:47.839Z,2.40
2019-01-18T00:14:16.627Z,4.87
2019-01-18T00:16:45.569Z,9.57
2019-01-18T00:19:14.382Z,5.23
2019-01-18T00:21:43.324Z,9.50
2019-01-18T00:24:12.145Z,3.80
2019-01-18T00:26:40.957Z,5.10
2019-01-18T00:29:09.771Z,4.80
2019-01-18T00:31:38.557Z,5.60
2019-01-18T00:34:07.629Z,4.27
2019-01-18T00:36:36.477Z,6.70
2019-01-18T00:39:07.947Z,3.40
2019-01-18T00:41:36.899Z,5.13
2019-01-18T00:44:06.060Z,4.50
2019-01-18T00:46:34.866Z,6.47
2019-01-18T00:49:03.820Z,13.48
2019-01-18T00:51:32.609Z,4.67
2019-01-18T00:54:01.492Z,6.80
2019-01-18T00:56:30.268Z,3.50
2019-01-18T00:58:59.224Z,3.73
2019-01-18T01:01:28.146Z,5.95
2019-01-18T01:03:57.118Z,3.10
2019-01-18T01:06:25.992Z,4.70
2019-01-18T01:08:54.954Z,3.43
2019-01-18T01:11:24.189Z,2.47
2019-01-18T01:13:53.146Z,5.27
2019-01-18T01:16:22.006Z,3.90
2019-01-18T01:18:50.879Z,2.90
2019-01-18T01:21:19.854Z,5.60
2019-01-18T01:23:48.665Z,4.05
2019-01-18T01:26:17.536Z,6.33
2019-01-18T01:28:46.340Z,14.70
2019-01-18T01:31:15.296Z,5.20
2019-01-18T01:33:44.257Z,6.30
2019-01-18T01:36:13.204Z,3.73
2019-01-18T01:38:42.088Z,6.72
2019-01-18T01:41:10.981Z,4.37
2019-01-18T01:43:39.983Z,7.90
2019-01-18T01:46:08.855Z,2.70
2019-01-18T01:48:37.828Z,11.53
2019-01-18T01:51:06.773Z,5.15
2019-01-18T01:53:35.683Z,5.63
2019-01-18T01:56:04.734Z,3.90
2019-01-18T01:58:33.607Z,5.58
2019-01-18T02:01:02.462Z,5.87
2019-01-18T02:03:31.423Z,5.77
2019-01-18T02:06:00.315Z,6.83
2019-01-18T02:08:29.190Z,5.30
2019-01-18T02:10:58.092Z,6.83
2019-01-18T02:13:26.896Z,4.67
2019-01-18T02:15:55.947Z,8.00
2019-01-18T02:18:24.814Z,5.97
2019-01-18T02:20:53.765Z,4.40
2019-01-18T02:23:22.757Z,2.80
2019-01-18T02:25:51.763Z,2.72
2019-01-18T02:28:20.759Z,4.75
2019-01-18T02:30:49.735Z,3.27
2019-01-18T02:33:18.818Z,3.43
2019-01-18T02:35:47.712Z,9.83
2019-01-18T02:38:16.635Z,6.40
2019-01-18T02:40:45.734Z,4.47
2019-01-18T02:43:14.539Z,3.17
2019-01-18T02:45:43.425Z,9.37
2019-01-18T02:48:12.385Z,3.85
2019-01-18T02:50:41.206Z,3.70
2019-01-18T02:53:09.995Z,5.43
2019-01-18T02:55:38.958Z,4.20
2019-01-18T02:58:07.762Z,8.67
2019-01-18T03:00:36.716Z,7.12
2019-01-18T03:03:05.627Z,6.25
2019-01-18T03:05:34.771Z,4.73
2019-01-18T03:08:03.847Z,2.53
2019-01-18T03:10:33.124Z,4.40
2019-01-18T03:13:02.072Z,4.97
2019-01-18T03:15:30.973Z,5.00
2019-01-18T03:17:59.764Z,3.97
2019-01-18T03:20:28.716Z,16.80
2019-01-18T03:22:57.598Z,3.60
2019-01-18T03:25:28.679Z,7.08
2019-01-18T03:27:57.725Z,5.67
2019-01-18T03:30:26.685Z,4.90
2019-01-18T03:32:55.652Z,4.40
2019-01-18T03:35:24.998Z,5.03
2019-01-18T03:37:54.108Z,3.75
2019-01-18T03:40:23.106Z,3.42
2019-01-18T03:42:52.468Z,4.22
2019-01-18T03:45:21.417Z,9.30
2019-01-18T03:47:50.358Z,2.90
2019-01-18T03:50:21.691Z,2.70
2019-01-18T03:52:50.642Z,2.70
2019-01-18T03:55:19.790Z,3.98
2019-01-18T03:57:48.661Z,7.03
2019-01-18T04:00:26.426Z,9.23
2019-01-18T04:02:53.340Z,3.00
2019-01-18T04:05:22.323Z,5.57
2019-01-18T04:07:51.261Z,6.23
2019-01-18T04:10:20.575Z,3.80
2019-01-18T04:12:49.528Z,3.07
2019-01-18T04:15:19.642Z,3.53
2019-01-18T04:17:48.575Z,3.93
2019-01-18T04:20:18.175Z,15.03
2019-01-18T04:22:47.052Z,6.30
2019-01-18T04:25:20.008Z,3.87
2019-01-18T04:27:48.957Z,4.87
2019-01-18T04:30:20.031Z,11.83
2019-01-18T04:32:49.104Z,3.70
2019-01-18T04:35:18.121Z,10.33
2019-01-18T04:37:47.065Z,5.08
2019-01-18T04:40:18.513Z,5.50
2019-01-18T04:42:47.465Z,3.70
2019-01-18T04:45:16.406Z,5.43
2019-01-18T04:47:45.350Z,4.80
2019-01-18T04:50:16.891Z,5.27
2019-01-18T04:52:46.022Z,8.77
2019-01-18T04:55:14.997Z,11.83
2019-01-18T04:57:43.937Z,7.37
2019-01-18T05:00:21.195Z,7.33
2019-01-18T05:02:50.251Z,3.30
2019-01-18T05:05:19.506Z,8.90
2019-01-18T05:07:48.921Z,10.87
2019-01-18T05:10:18.792Z,5.60
2019-01-18T05:12:47.640Z,8.80
2019-01-18T05:15:19.130Z,9.97
2019-01-18T05:17:48.253Z,4.13
2019-01-18T05:20:17.633Z,5.70
2019-01-18T05:22:46.562Z,7.92
2019-01-18T05:25:15.782Z,12.00
2019-01-18T05:27:44.724Z,6.25
2019-01-18T05:30:16.614Z,2.60
2019-01-18T05:32:45.568Z,7.47
2019-01-18T05:35:14.545Z,3.90
2019-01-18T05:37:43.476Z,5.27
2019-01-18T05:40:14.275Z,6.83
2019-01-18T05:42:43.327Z,4.97
2019-01-18T05:45:14.988Z,7.83
2019-01-18T05:47:43.926Z,15.07
2019-01-18T05:50:15.421Z,3.47
2019-01-18T05:52:44.357Z,9.07
2019-01-18T05:55:13.344Z,5.35
2019-01-18T05:57:42.277Z,4.57
2019-01-18T06:00:17.019Z,8.00
2019-01-18T06:02:45.977Z,7.53
2019-01-18T06:05:16.245Z,5.60
2019-01-18T06:07:45.244Z,6.30
2019-01-18T06:10:14.176Z,6.10
2019-01-18T06:12:43.058Z,16.10
2019-01-18T06:15:12.125Z,6.73
2019-01-18T06:17:41.191Z,9.90
2019-01-18T06:20:43.275Z,13.73
2019-01-18T06:23:12.135Z,4.43
2019-01-18T06:25:40.939Z,6.30
2019-01-18T06:28:09.789Z,4.30
2019-01-18T06:30:38.656Z,5.03
2019-01-18T06:33:07.463Z,6.93
2019-01-18T06:35:36.384Z,6.45
2019-01-18T06:38:05.449Z,8.08
2019-01-18T06:40:34.393Z,15.70
2019-01-18T06:43:03.182Z,7.57
2019-01-18T06:45:32.855Z,17.70
2019-01-18T06:48:01.809Z,10.10
2019-01-18T06:50:31.031Z,17.85
2019-01-18T06:52:59.818Z,22.35
2019-01-18T06:55:28.672Z,7.43
2019-01-18T06:57:57.630Z,7.37
2019-01-18T07:00:31.792Z,14.20
2019-01-18T07:03:01.677Z,9.83
2019-01-18T07:05:30.563Z,10.98
2019-01-18T07:07:59.551Z,9.97
2019-01-18T07:10:28.496Z,5.53
2019-01-18T07:12:57.303Z,10.87
2019-01-18T07:15:26.237Z,10.23
2019-01-18T07:17:55.103Z,11.70
2019-01-18T07:20:24.027Z,5.03
2019-01-18T07:22:52.849Z,6.10
2019-01-18T07:25:24.017Z,11.07
2019-01-18T07:27:52.883Z,10.87
2019-01-18T07:30:30.818Z,9.23
2019-01-18T07:32:59.754Z,8.88
2019-01-18T07:35:28.703Z,18.05
2019-01-18T07:37:57.652Z,20.87
2019-01-18T07:40:26.575Z,6.20
2019-01-18T07:42:55.387Z,15.13
2019-01-18T07:45:26.086Z,8.50
2019-01-18T07:47:54.954Z,10.43
2019-01-18T07:50:23.910Z,11.07
2019-01-18T07:52:52.964Z,19.77
2019-01-18T07:55:21.898Z,7.70
2019-01-18T07:57:50.771Z,11.03
2019-01-18T08:00:21.860Z,12.00
2019-01-18T08:02:50.913Z,10.47
2019-01-18T08:05:20.422Z,5.60
2019-01-18T08:07:49.352Z,5.90
2019-01-18T08:10:19.334Z,14.70
2019-01-18T08:12:48.213Z,9.23
2019-01-18T08:15:21.640Z,9.80
2019-01-18T08:17:50.931Z,10.10
2019-01-18T08:20:21.976Z,10.50
2019-01-18T08:22:50.985Z,7.53
2019-01-18T08:25:19.927Z,8.78
2019-01-18T08:27:48.966Z,9.03
2019-01-18T08:30:20.060Z,9.00
2019-01-18T08:32:49.129Z,5.30
2019-01-18T08:35:19.190Z,8.53
2019-01-18T08:37:48.165Z,8.17
2019-01-18T08:40:19.664Z,17.90
2019-01-18T08:42:48.626Z,8.07
2019-01-18T08:45:20.843Z,10.50
2019-01-18T08:47:49.837Z,8.47
2019-01-18T08:50:18.746Z,9.10
2019-01-18T08:52:47.649Z,6.00
2019-01-18T08:55:16.511Z,9.70
2019-01-18T08:57:45.367Z,4.47
2019-01-18T09:00:16.917Z,7.10
2019-01-18T09:02:45.779Z,7.93
2019-01-18T09:05:16.980Z,10.45
2019-01-18T09:07:45.765Z,11.97
2019-01-18T09:10:16.015Z,5.97
2019-01-18T09:12:44.882Z,7.37
2019-01-18T09:15:14.283Z,8.33
2019-01-18T09:17:43.247Z,10.97
2019-01-18T09:20:20.128Z,11.37
2019-01-18T09:22:49.046Z,6.00
2019-01-18T09:25:18.019Z,9.00
2019-01-18T09:27:46.942Z,17.80
2019-01-18T09:30:18.302Z,7.90
2019-01-18T09:32:47.350Z,11.48
2019-01-18T09:35:17.327Z,4.70
2019-01-18T09:37:46.875Z,8.27
2019-01-18T09:40:24.259Z,9.77
2019-01-18T09:42:53.121Z,10.83
2019-01-18T09:45:21.973Z,5.23
2019-01-18T09:47:50.817Z,3.35
2019-01-18T09:50:21.908Z,5.90
2019-01-18T09:52:50.870Z,13.80
2019-01-18T09:55:19.933Z,8.63
2019-01-18T09:57:48.864Z,7.20
2019-01-18T10:00:26.332Z,5.63
2019-01-18T10:02:55.656Z,4.65
2019-01-18T10:05:24.704Z,4.83
2019-01-18T10:07:53.624Z,6.37
2019-01-18T10:10:22.823Z,4.50
2019-01-18T10:12:51.941Z,4.77
2019-01-18T10:15:23.336Z,5.77
2019-01-18T10:17:52.193Z,6.87
2019-01-18T10:20:21.051Z,4.00
2019-01-18T10:22:50.205Z,8.13
2019-01-18T10:25:19.466Z,11.77
2019-01-18T10:27:48.382Z,9.37
2019-01-18T10:30:19.444Z,13.97
2019-01-18T10:32:48.472Z,10.73
2019-01-18T10:35:18.376Z,7.87
2019-01-18T10:37:47.387Z,5.23
2019-01-18T10:40:16.871Z,9.10
2019-01-18T10:42:46.221Z,6.20
2019-01-18T10:45:15.640Z,5.40
2019-01-18T10:47:44.826Z,14.00
2019-01-18T10:50:15.947Z,9.50
2019-01-18T10:52:44.879Z,6.30
2019-01-18T10:55:13.728Z,2.87
2019-01-18T10:57:42.596Z,4.07
2019-01-18T11:00:18.182Z,11.43
2019-01-18T11:02:46.975Z,6.73
2019-01-18T11:05:16.820Z,13.63
2019-01-18T11:07:45.678Z,11.05
2019-01-18T11:10:14.615Z,6.53
2019-01-18T11:12:43.627Z,3.23
2019-01-18T11:15:13.957Z,3.37
2019-01-18T11:17:42.917Z,4.67
2019-01-18T11:20:17.421Z,12.10
2019-01-18T11:22:46.200Z,2.58
2019-01-18T11:25:15.151Z,12.63
2019-01-18T11:27:44.115Z,5.03
2019-01-18T11:30:14.916Z,4.50
2019-01-18T11:32:43.866Z,3.83
2019-01-18T11:35:12.821Z,2.57
2019-01-18T11:37:42.846Z,4.60
2019-01-18T11:40:15.697Z,4.05
2019-01-18T11:42:44.656Z,5.10
2019-01-18T11:45:14.200Z,9.70
2019-01-18T11:47:43.066Z,4.40
2019-01-18T11:50:18.275Z,4.20
2019-01-18T11:52:47.141Z,2.95
2019-01-18T11:55:16.031Z,2.22
2019-01-18T11:57:44.960Z,5.80
2019-01-18T12:00:16.552Z,4.07
2019-01-18T12:02:45.511Z,2.43
2019-01-18T12:05:14.424Z,4.13
2019-01-18T12:07:43.516Z,7.60
2019-01-18T12:10:16.400Z,9.33
2019-01-18T12:12:45.356Z,2.97
2019-01-18T12:15:14.368Z,2.17
2019-01-18T12:17:43.692Z,3.95
2019-01-18T12:20:15.340Z,1.65
2019-01-18T12:22:44.373Z,2.83
2019-01-18T12:25:13.902Z,3.65
2019-01-18T12:27:42.763Z,5.30
2019-01-18T12:30:15.109Z,1.80
2019-01-18T12:32:44.001Z,4.33
2019-01-18T12:35:13.228Z,6.78
2019-01-18T12:37:42.172Z,3.30
2019-01-18T12:40:11.217Z,2.02
2019-01-18T12:42:40.147Z,4.20
2019-01-18T12:45:12.792Z,4.23
2019-01-18T12:47:41.581Z,13.77
2019-01-18T12:50:15.710Z,1.50
2019-01-18T12:52:44.562Z,1.70
2019-01-18T12:55:13.487Z,3.77
2019-01-18T12:57:42.348Z,1.80
2019-01-18T13:00:14.315Z,2.50
2019-01-18T13:02:43.370Z,7.63
2019-01-18T13:05:15.269Z,1.90
2019-01-18T13:07:45.421Z,2.47
2019-01-18T13:10:15.115Z,3.37
2019-01-18T13:12:43.982Z,2.62
2019-01-18T13:15:16.915Z,1.90
2019-01-18T13:17:45.708Z,2.83
2019-01-18T13:20:15.478Z,5.97
2019-01-18T13:22:44.399Z,7.83
2019-01-18T13:25:13.870Z,3.22
2019-01-18T13:27:42.934Z,4.80
2019-01-18T13:30:14.234Z,7.10
2019-01-18T13:32:43.171Z,2.07
2019-01-18T13:35:12.090Z,2.80
2019-01-18T13:37:41.122Z,2.43
2019-01-18T13:40:13.559Z,3.23
2019-01-18T13:42:42.489Z,2.67
2019-01-18T13:45:11.920Z,1.83
2019-01-18T13:47:40.975Z,3.67
2019-01-18T13:50:14.920Z,3.60
2019-01-18T13:52:43.861Z,4.97
2019-01-18T13:55:15.892Z,2.33
2019-01-18T13:57:44.832Z,2.30
2019-01-18T14:00:14.390Z,2.93
2019-01-18T14:02:48.412Z,2.70
2019-01-18T14:05:14.321Z,3.07
2019-01-18T14:07:43.253Z,2.20
2019-01-18T14:10:17.917Z,3.07
2019-01-18T14:12:46.900Z,2.70
2019-01-18T14:15:18.992Z,3.37
2019-01-18T14:17:47.838Z,2.62
2019-01-18T14:20:20.938Z,2.90
2019-01-18T14:22:48.282Z,4.30
2019-01-18T14:25:17.376Z,4.33
2019-01-18T14:27:47.344Z,3.70
2019-01-18T14:30:26.201Z,5.37
2019-01-18T14:32:56.021Z,2.90
2019-01-18T14:35:25.089Z,2.53
2019-01-18T14:37:54.208Z,3.27
2019-01-18T14:40:23.186Z,2.70
2019-01-18T14:42:52.358Z,3.30
2019-01-18T14:45:33.146Z,4.10
2019-01-18T14:48:01.992Z,2.73
2019-01-18T14:50:30.840Z,2.67
2019-01-18T14:52:59.712Z,3.70
2019-01-18T14:55:28.517Z,5.23
2019-01-18T14:57:57.484Z,6.00
2019-01-18T15:00:30.229Z,5.80
2019-01-18T15:03:02.469Z,3.70
2019-01-18T15:05:29.910Z,3.23
2019-01-18T15:07:58.808Z,1.90
2019-01-18T15:10:27.653Z,3.50
2019-01-18T15:12:59.669Z,3.80
2019-01-18T15:15:28.522Z,3.60
2019-01-18T15:17:57.481Z,8.40
2019-01-18T15:20:28.331Z,8.20
2019-01-18T15:22:57.365Z,6.60
2019-01-18T15:25:26.327Z,13.45
2019-01-18T15:27:55.255Z,4.43
2019-01-18T15:30:26.615Z,5.33
2019-01-18T15:32:55.465Z,4.20
2019-01-18T15:35:29.644Z,6.53
2019-01-18T15:37:58.509Z,4.37
2019-01-18T15:40:28.585Z,10.57
2019-01-18T15:42:59.644Z,6.40
2019-01-18T15:45:28.425Z,7.87
2019-01-18T15:47:57.403Z,12.50
2019-01-18T15:50:28.716Z,13.77
2019-01-18T15:52:57.670Z,6.67
2019-01-18T15:55:26.713Z,8.95
2019-01-18T15:57:55.664Z,8.47
2019-01-18T16:00:44.168Z,10.60
2019-01-18T16:03:16.178Z,12.33
2019-01-18T16:05:43.613Z,7.30
2019-01-18T16:08:13.229Z,5.90
2019-01-18T16:10:42.077Z,7.73
2019-01-18T16:13:12.568Z,10.47
2019-01-18T16:16:07.287Z,5.13
2019-01-18T16:18:36.138Z,3.93
2019-01-18T16:21:05.021Z,5.30
2019-01-18T16:23:33.899Z,3.80
2019-01-18T16:26:02.769Z,10.60
2019-01-18T16:28:31.624Z,4.63
2019-01-18T16:31:00.489Z,5.03
2019-01-18T16:33:29.367Z,4.83
2019-01-18T16:35:58.248Z,8.13
2019-01-18T16:38:27.216Z,3.30
2019-01-18T16:40:56.093Z,5.57
2019-01-18T16:43:28.184Z,6.72
2019-01-18T16:45:57.120Z,5.33
2019-01-18T16:48:25.970Z,7.78
2019-01-18T16:50:54.783Z,7.13
2019-01-18T16:53:23.723Z,10.43
2019-01-18T16:55:52.564Z,9.13
2019-01-18T16:58:21.539Z,11.28
2019-01-18T17:00:52.466Z,6.62
2019-01-18T17:03:21.876Z,8.95
2019-01-18T17:05:50.897Z,12.70
2019-01-18T17:08:19.810Z,10.30
2019-01-18T17:10:48.820Z,7.07
2019-01-18T17:13:17.906Z,8.20
2019-01-18T17:15:46.697Z,7.13
2019-01-18T17:18:15.622Z,4.53
2019-01-18T17:20:44.999Z,8.23
2019-01-18T17:23:13.915Z,11.00
2019-01-18T17:25:42.858Z,6.07
2019-01-18T17:28:11.706Z,9.90
2019-01-18T17:30:40.562Z,6.70
2019-01-18T17:33:09.507Z,7.83
2019-01-18T17:36:05.124Z,7.77
2019-01-18T17:38:55.778Z,10.80
2019-01-18T17:41:49.361Z,10.60
2019-01-18T17:44:55.255Z,8.07
2019-01-18T17:48:03.982Z,12.33
2019-01-18T17:51:12.025Z,8.10
2019-01-18T17:53:57.436Z,7.93
2019-01-18T17:56:49.651Z,8.58
2019-01-18T17:59:55.436Z,5.85
2019-01-18T18:02:46.959Z,8.90
2019-01-18T18:05:40.855Z,7.87
2019-01-18T18:08:49.761Z,6.33
2019-01-18T18:11:41.758Z,10.20
2019-01-18T18:14:53.406Z,7.73
2019-01-18T18:17:43.757Z,9.40
2019-01-18T18:20:41.137Z,6.67
2019-01-18T18:23:48.344Z,11.27
2019-01-18T18:27:11.052Z,6.80
2019-01-18T18:30:23.201Z,10.97
2019-01-18T18:33:25.236Z,14.17
2019-01-18T18:36:17.308Z,16.27
2019-01-18T18:39:09.430Z,11.00
2019-01-18T18:41:54.326Z,10.83
2019-01-18T18:45:07.808Z,14.90
2019-01-18T18:48:13.617Z,16.43
2019-01-18T18:51:27.997Z,10.63
2019-01-18T18:54:41.010Z,13.83
2019-01-18T18:57:25.378Z,12.07
2019-01-18T19:00:31.021Z,12.30
2019-01-18T19:03:33.734Z,18.27
2019-01-18T19:06:31.253Z,9.70
2019-01-18T19:09:37.617Z,14.90
2019-01-18T19:12:53.823Z,10.13
2019-01-18T19:15:49.744Z,12.60
2019-01-18T19:18:47.331Z,17.13
2019-01-18T19:21:46.860Z,15.18
2019-01-18T19:24:59.712Z,14.00
2019-01-18T19:28:10.865Z,10.87
2019-01-18T19:31:03.347Z,15.30
2019-01-18T19:34:04.403Z,15.53
2019-01-18T19:37:14.165Z,25.63
2019-01-18T19:39:54.027Z,13.83
2019-01-18T19:42:58.689Z,15.60
2019-01-18T19:46:16.884Z,14.07
2019-01-18T19:49:22.648Z,17.53
2019-01-18T19:52:08.226Z,15.45
2019-01-18T19:54:58.807Z,22.37
2019-01-18T19:58:06.634Z,18.17
2019-01-18T20:01:17.637Z,18.17
2019-01-18T20:04:22.606Z,20.10
2019-01-18T20:07:01.412Z,28.67
2019-01-18T20:10:08.393Z,15.70
2019-01-18T20:13:28.014Z,21.82
2019-01-18T20:16:08.983Z,11.50
2019-01-18T20:19:18.488Z,17.30
2019-01-18T20:22:19.040Z,13.93
2019-01-18T20:25:29.456Z,13.57
2019-01-18T20:28:42.614Z,12.50
2019-01-18T20:31:35.692Z,12.97
2019-01-18T20:34:34.459Z,15.03
2019-01-18T20:38:05.655Z,17.63
2019-01-18T20:40:51.647Z,19.73
2019-01-18T20:43:50.429Z,17.13
2019-01-18T20:47:04.610Z,16.70
2019-01-18T20:50:04.343Z,12.90
2019-01-18T20:53:13.232Z,15.40
2019-01-18T20:56:40.602Z,14.80
2019-01-18T20:59:44.816Z,13.80
2019-01-18T21:02:32.769Z,12.77
2019-01-18T21:05:22.041Z,20.37
2019-01-18T21:08:27.020Z,16.37
2019-01-18T21:11:06.374Z,21.00
2019-01-18T21:14:02.810Z,14.03
2019-01-18T21:17:06.733Z,15.63
2019-01-18T21:19:56.125Z,22.30
2019-01-18T21:23:04.746Z,9.30
2019-01-18T21:26:08.280Z,18.07
2019-01-18T21:29:04.918Z,15.28
2019-01-18T21:31:58.021Z,19.73
2019-01-18T21:34:39.237Z,13.73
2019-01-18T21:38:03.983Z,19.37
2019-01-18T21:40:59.174Z,18.20
2019-01-18T21:44:20.951Z,23.33
2019-01-18T21:47:26.248Z,16.10
2019-01-18T21:50:26.288Z,23.47
2019-01-18T21:53:27.331Z,23.30
2019-01-18T21:56:08.926Z,16.85
2019-01-18T22:03:02.474Z,18.30
2019-01-18T22:06:24.808Z,12.70
2019-01-18T22:09:14.490Z,19.77
2019-01-18T22:12:23.059Z,16.43
2019-01-18T22:15:20.698Z,19.55
2019-01-18T22:18:52.181Z,19.87
2019-01-18T22:21:50.726Z,13.70
2019-01-18T22:25:12.930Z,18.77
2019-01-18T22:27:55.396Z,19.63
2019-01-18T22:30:47.238Z,16.93
2019-01-18T22:34:05.333Z,19.90
2019-01-18T22:37:15.681Z,16.60
2019-01-18T22:40:05.762Z,16.50
2019-01-18T22:42:58.715Z,20.33
2019-01-18T22:45:46.472Z,18.63
2019-01-18T22:48:42.012Z,14.50
2019-01-18T22:52:10.193Z,17.73
2019-01-18T22:55:35.781Z,19.00
2019-01-18T22:58:33.202Z,17.45
2019-01-18T23:01:55.057Z,23.63
2019-01-18T23:04:55.297Z,18.53
2019-01-18T23:07:50.637Z,15.63
2019-01-18T23:10:55.560Z,23.20
2019-01-18T23:14:07.669Z,19.70
2019-01-18T23:17:17.742Z,24.00
2019-01-18T23:20:39.930Z,35.40
2019-01-18T23:23:33.494Z,31.35
2019-01-18T23:26:23.710Z,23.20
2019-01-18T23:29:16.894Z,25.10
2019-01-18T23:32:13.436Z,16.87
2019-01-18T23:35:05.071Z,23.77
2019-01-18T23:37:45.867Z,22.03
2019-01-18T23:40:39.849Z,20.97
2019-01-18T23:43:38.736Z,18.90
2019-01-18T23:46:59.452Z,16.67
2019-01-18T23:49:54.504Z,23.33
2019-01-18T23:52:47.359Z,15.45
2019-01-18T23:55:59.608Z,19.73
2019-01-18T23:58:56.009Z,21.93
